sensor_id;sensor_type;location;lat;lon;timestamp;pressure;altitude;pressure_sealevel;temperature;humidity
22964;BME280;11648;49.306;6.934;2023-04-15T00:01:35;97486.72;;;13.46;47.66
22964;BME280;11648;49.306;6.934;2023-04-15T00:04:02;97473.56;;;13.45;47.51
22964;BME280;11648;49.306;6.934;2023-04-15T00:06:30;97471.78;;;13.45;47.96
22964;BME280;11648;49.306;6.934;2023-04-15T00:08:57;97467.59;;;13.40;47.86
22964;BME280;11648;49.306;6.934;2023-04-15T00:11:24;97470.78;;;13.48;47.49
22964;BME280;11648;49.306;6.934;2023-04-15T00:13:51;97470.41;;;13.35;47.68
22964;BME280;11648;49.306;6.934;2023-04-15T00:16:18;97468.69;;;13.34;47.41
22964;BME280;11648;49.306;6.934;2023-04-15T00:18:45;97465.53;;;13.24;48.29
22964;BME280;11648;49.306;6.934;2023-04-15T00:21:11;97463.97;;;13.19;47.89
22964;BME280;11648;49.306;6.934;2023-04-15T00:23:38;97461.50;;;13.14;47.75
22964;BME280;11648;49.306;6.934;2023-04-15T00:26:05;97461.59;;;13.11;48.06
22964;BME280;11648;49.306;6.934;2023-04-15T00:28:32;97464.41;;;13.07;48.01
22964;BME280;11648;49.306;6.934;2023-04-15T00:30:59;97461.28;;;12.96;48.55
22964;BME280;11648;49.306;6.934;2023-04-15T00:33:26;97458.09;;;12.86;49.00
22964;BME280;11648;49.306;6.934;2023-04-15T00:35:53;97449.22;;;12.64;48.82
22964;BME280;11648;49.306;6.934;2023-04-15T00:38:19;97446.91;;;12.55;47.94
22964;BME280;11648;49.306;6.934;2023-04-15T00:40:46;97444.41;;;12.50;48.57
22964;BME280;11648;49.306;6.934;2023-04-15T00:43:16;97446.50;;;12.41;49.43
22964;BME280;11648;49.306;6.934;2023-04-15T00:45:43;97448.66;;;12.29;49.50
22964;BME280;11648;49.306;6.934;2023-04-15T00:48:10;97444.31;;;12.28;48.95
22964;BME280;11648;49.306;6.934;2023-04-15T00:50:37;97451.25;;;12.31;49.00
22964;BME280;11648;49.306;6.934;2023-04-15T00:53:04;97442.91;;;12.43;48.45
22964;BME280;11648;49.306;6.934;2023-04-15T00:55:31;97444.75;;;12.66;47.94
22964;BME280;11648;49.306;6.934;2023-04-15T00:57:58;97442.69;;;12.74;48.15
22964;BME280;11648;49.306;6.934;2023-04-15T01:00:25;97447.00;;;12.76;47.85
22964;BME280;11648;49.306;6.934;2023-04-15T01:02:52;97444.47;;;12.73;48.12
22964;BME280;11648;49.306;6.934;2023-04-15T01:05:19;97451.50;;;12.74;47.79
22964;BME280;11648;49.306;6.934;2023-04-15T01:07:47;97443.00;;;12.65;48.19
22964;BME280;11648;49.306;6.934;2023-04-15T01:10:14;97440.56;;;12.60;48.47
22964;BME280;11648;49.306;6.934;2023-04-15T01:12:41;97437.59;;;12.45;49.44
22964;BME280;11648;49.306;6.934;2023-04-15T01:15:09;97436.09;;;12.36;49.00
22964;BME280;11648;49.306;6.934;2023-04-15T01:17:36;97435.94;;;12.16;49.25
22964;BME280;11648;49.306;6.934;2023-04-15T01:20:06;97435.31;;;12.08;49.86
22964;BME280;11648;49.306;6.934;2023-04-15T01:22:36;97428.88;;;12.16;50.23
22964;BME280;11648;49.306;6.934;2023-04-15T01:25:11;97419.59;;;12.31;49.94
22964;BME280;11648;49.306;6.934;2023-04-15T01:27:40;97423.66;;;12.39;49.97
22964;BME280;11648;49.306;6.934;2023-04-15T01:30:09;97428.91;;;12.41;50.21
22964;BME280;11648;49.306;6.934;2023-04-15T01:32:36;97420.75;;;12.47;50.48
22964;BME280;11648;49.306;6.934;2023-04-15T01:35:22;97425.09;;;12.50;50.45
22964;BME280;11648;49.306;6.934;2023-04-15T01:37:50;97422.50;;;12.48;50.46
22964;BME280;11648;49.306;6.934;2023-04-15T01:40:17;97430.47;;;12.47;50.25
22964;BME280;11648;49.306;6.934;2023-04-15T01:42:45;97423.50;;;12.44;50.47
22964;BME280;11648;49.306;6.934;2023-04-15T01:45:15;97424.72;;;12.09;51.09
22964;BME280;11648;49.306;6.934;2023-04-15T01:47:44;97425.88;;;12.01;51.18
22964;BME280;11648;49.306;6.934;2023-04-15T01:50:12;97418.53;;;12.10;50.68
22964;BME280;11648;49.306;6.934;2023-04-15T01:52:40;97429.38;;;12.01;51.09
22964;BME280;11648;49.306;6.934;2023-04-15T01:55:12;97426.34;;;12.13;51.00
22964;BME280;11648;49.306;6.934;2023-04-15T01:57:40;97423.34;;;12.24;50.24
22964;BME280;11648;49.306;6.934;2023-04-15T02:00:09;97421.50;;;12.26;49.72
22964;BME280;11648;49.306;6.934;2023-04-15T02:02:42;97418.50;;;12.36;49.88
22964;BME280;11648;49.306;6.934;2023-04-15T02:05:10;97424.72;;;12.35;49.87
22964;BME280;11648;49.306;6.934;2023-04-15T02:07:38;97423.47;;;12.46;49.80
22964;BME280;11648;49.306;6.934;2023-04-15T02:10:06;97424.34;;;12.46;49.49
22964;BME280;11648;49.306;6.934;2023-04-15T02:12:35;97430.53;;;12.45;49.43
22964;BME280;11648;49.306;6.934;2023-04-15T02:15:04;97431.13;;;12.28;48.96
22964;BME280;11648;49.306;6.934;2023-04-15T02:17:36;97425.16;;;12.22;47.87
22964;BME280;11648;49.306;6.934;2023-04-15T02:20:04;97417.22;;;12.23;46.76
22964;BME280;11648;49.306;6.934;2023-04-15T02:22:33;97418.09;;;12.49;46.41
22964;BME280;11648;49.306;6.934;2023-04-15T02:25:01;97427.56;;;12.54;46.82
22964;BME280;11648;49.306;6.934;2023-04-15T02:27:31;97430.38;;;12.50;47.90
22964;BME280;11648;49.306;6.934;2023-04-15T02:29:59;97430.13;;;12.31;50.18
22964;BME280;11648;49.306;6.934;2023-04-15T02:32:28;97434.78;;;12.24;50.15
22964;BME280;11648;49.306;6.934;2023-04-15T02:34:56;97437.16;;;12.32;49.74
22964;BME280;11648;49.306;6.934;2023-04-15T02:37:29;97430.31;;;12.25;49.68
22964;BME280;11648;49.306;6.934;2023-04-15T02:39:58;97439.69;;;12.09;50.08
22964;BME280;11648;49.306;6.934;2023-04-15T02:42:27;97433.91;;;11.98;50.38
22964;BME280;11648;49.306;6.934;2023-04-15T02:45:00;97435.47;;;11.77;51.82
22964;BME280;11648;49.306;6.934;2023-04-15T02:47:33;97421.59;;;11.70;52.07
22964;BME280;11648;49.306;6.934;2023-04-15T02:50:06;97430.97;;;11.80;51.83
22964;BME280;11648;49.306;6.934;2023-04-15T02:52:34;97432.09;;;11.72;52.20
22964;BME280;11648;49.306;6.934;2023-04-15T02:55:03;97437.75;;;11.87;51.71
22964;BME280;11648;49.306;6.934;2023-04-15T02:57:31;97442.81;;;11.94;51.51
22964;BME280;11648;49.306;6.934;2023-04-15T03:00:05;97437.66;;;11.91;51.38
22964;BME280;11648;49.306;6.934;2023-04-15T03:02:38;97446.47;;;11.89;51.42
22964;BME280;11648;49.306;6.934;2023-04-15T03:05:11;97442.31;;;11.82;51.40
22964;BME280;11648;49.306;6.934;2023-04-15T03:07:41;97441.59;;;11.77;50.73
22964;BME280;11648;49.306;6.934;2023-04-15T03:10:10;97442.50;;;11.76;51.08
22964;BME280;11648;49.306;6.934;2023-04-15T03:12:39;97439.09;;;11.73;50.61
22964;BME280;11648;49.306;6.934;2023-04-15T03:15:10;97440.66;;;11.78;50.23
22964;BME280;11648;49.306;6.934;2023-04-15T03:17:43;97441.38;;;11.85;50.04
22964;BME280;11648;49.306;6.934;2023-04-15T03:20:11;97437.09;;;11.81;50.16
22964;BME280;11648;49.306;6.934;2023-04-15T03:22:39;97441.19;;;11.89;49.95
22964;BME280;11648;49.306;6.934;2023-04-15T03:25:08;97439.19;;;11.98;49.60
22964;BME280;11648;49.306;6.934;2023-04-15T03:27:37;97442.47;;;12.04;49.00
22964;BME280;11648;49.306;6.934;2023-04-15T03:30:06;97438.13;;;12.03;48.52
22964;BME280;11648;49.306;6.934;2023-04-15T03:32:37;97439.19;;;11.98;49.12
22964;BME280;11648;49.306;6.934;2023-04-15T03:35:07;97438.38;;;11.96;48.82
22964;BME280;11648;49.306;6.934;2023-04-15T03:37:35;97437.69;;;11.89;49.26
22964;BME280;11648;49.306;6.934;2023-04-15T03:40:04;97446.63;;;11.85;49.02
22964;BME280;11648;49.306;6.934;2023-04-15T03:42:32;97444.16;;;11.80;48.86
22964;BME280;11648;49.306;6.934;2023-04-15T03:45:00;97440.97;;;11.68;48.90
22964;BME280;11648;49.306;6.934;2023-04-15T03:47:28;97440.94;;;11.69;49.08
22964;BME280;11648;49.306;6.934;2023-04-15T03:49:56;97442.53;;;11.75;48.82
22964;BME280;11648;49.306;6.934;2023-04-15T03:52:24;97438.75;;;11.83;48.69
22964;BME280;11648;49.306;6.934;2023-04-15T03:54:52;97442.03;;;11.92;48.33
22964;BME280;11648;49.306;6.934;2023-04-15T03:57:20;97445.97;;;12.05;47.56
22964;BME280;11648;49.306;6.934;2023-04-15T03:59:48;97442.31;;;12.09;47.82
22964;BME280;11648;49.306;6.934;2023-04-15T04:02:16;97447.47;;;12.13;47.76
22964;BME280;11648;49.306;6.934;2023-04-15T04:04:44;97444.75;;;12.15;48.70
22964;BME280;11648;49.306;6.934;2023-04-15T04:07:16;97448.22;;;12.17;48.96
22964;BME280;11648;49.306;6.934;2023-04-15T04:09:45;97447.28;;;12.18;49.17
22964;BME280;11648;49.306;6.934;2023-04-15T04:12:14;97448.47;;;12.09;49.23
22964;BME280;11648;49.306;6.934;2023-04-15T04:14:42;97449.34;;;11.82;49.65
22964;BME280;11648;49.306;6.934;2023-04-15T04:17:10;97446.13;;;11.74;50.12
22964;BME280;11648;49.306;6.934;2023-04-15T04:19:38;97446.13;;;11.74;50.04
22964;BME280;11648;49.306;6.934;2023-04-15T04:22:06;97447.88;;;11.73;50.17
22964;BME280;11648;49.306;6.934;2023-04-15T04:24:34;97448.84;;;11.69;49.96
22964;BME280;11648;49.306;6.934;2023-04-15T04:27:02;97445.44;;;11.66;50.12
22964;BME280;11648;49.306;6.934;2023-04-15T04:29:30;97453.06;;;11.76;49.76
22964;BME280;11648;49.306;6.934;2023-04-15T04:31:58;97456.31;;;11.84;49.62
22964;BME280;11648;49.306;6.934;2023-04-15T04:34:26;97451.22;;;11.78;50.16
22964;BME280;11648;49.306;6.934;2023-04-15T04:36:54;97458.13;;;11.82;50.65
22964;BME280;11648;49.306;6.934;2023-04-15T04:39:22;97461.16;;;11.69;51.34
22964;BME280;11648;49.306;6.934;2023-04-15T04:41:50;97456.88;;;11.66;51.61
22964;BME280;11648;49.306;6.934;2023-04-15T04:44:21;97461.31;;;11.64;51.88
22964;BME280;11648;49.306;6.934;2023-04-15T04:46:49;97457.47;;;11.76;51.72
22964;BME280;11648;49.306;6.934;2023-04-15T04:49:17;97460.16;;;11.74;51.56
22964;BME280;11648;49.306;6.934;2023-04-15T04:51:45;97466.25;;;11.76;51.62
22964;BME280;11648;49.306;6.934;2023-04-15T04:54:15;97461.72;;;11.80;51.22
22964;BME280;11648;49.306;6.934;2023-04-15T04:56:43;97462.47;;;11.85;50.45
22964;BME280;11648;49.306;6.934;2023-04-15T04:59:11;97465.09;;;11.85;50.02
22964;BME280;11648;49.306;6.934;2023-04-15T05:01:39;97458.84;;;11.87;48.74
22964;BME280;11648;49.306;6.934;2023-04-15T05:04:07;97454.69;;;11.80;48.91
22964;BME280;11648;49.306;6.934;2023-04-15T05:06:36;97462.34;;;11.88;48.65
22964;BME280;11648;49.306;6.934;2023-04-15T05:09:04;97457.50;;;12.02;48.33
22964;BME280;11648;49.306;6.934;2023-04-15T05:11:32;97448.31;;;12.14;48.78
22964;BME280;11648;49.306;6.934;2023-04-15T05:14:00;97458.69;;;12.18;49.17
22964;BME280;11648;49.306;6.934;2023-04-15T05:16:29;97465.59;;;12.22;49.69
22964;BME280;11648;49.306;6.934;2023-04-15T05:18:57;97462.56;;;12.34;49.46
22964;BME280;11648;49.306;6.934;2023-04-15T05:21:25;97463.09;;;12.44;49.90
22964;BME280;11648;49.306;6.934;2023-04-15T05:23:54;97467.25;;;12.51;50.88
22964;BME280;11648;49.306;6.934;2023-04-15T05:26:22;97471.09;;;12.43;50.76
22964;BME280;11648;49.306;6.934;2023-04-15T05:28:53;97476.00;;;12.53;50.74
22964;BME280;11648;49.306;6.934;2023-04-15T05:31:21;97488.16;;;12.57;50.01
22964;BME280;11648;49.306;6.934;2023-04-15T05:33:49;97487.09;;;12.63;49.99
22964;BME280;11648;49.306;6.934;2023-04-15T05:36:18;97489.88;;;12.58;50.44
22964;BME280;11648;49.306;6.934;2023-04-15T05:38:46;97497.19;;;12.50;50.32
22964;BME280;11648;49.306;6.934;2023-04-15T05:41:14;97493.38;;;12.34;50.24
22964;BME280;11648;49.306;6.934;2023-04-15T05:43:46;97496.41;;;12.22;51.42
22964;BME280;11648;49.306;6.934;2023-04-15T05:46:15;97495.28;;;12.29;51.15
22964;BME280;11648;49.306;6.934;2023-04-15T05:48:43;97496.91;;;12.33;51.43
22964;BME280;11648;49.306;6.934;2023-04-15T05:51:11;97500.75;;;12.24;51.49
22964;BME280;11648;49.306;6.934;2023-04-15T05:53:39;97492.81;;;12.24;51.24
22964;BME280;11648;49.306;6.934;2023-04-15T05:56:08;97489.59;;;11.88;52.09
22964;BME280;11648;49.306;6.934;2023-04-15T05:58:37;97498.63;;;12.08;51.21
22964;BME280;11648;49.306;6.934;2023-04-15T06:01:05;97494.38;;;12.30;50.57
22964;BME280;11648;49.306;6.934;2023-04-15T06:03:33;97496.81;;;12.36;50.15
22964;BME280;11648;49.306;6.934;2023-04-15T06:06:01;97488.22;;;12.56;49.74
22964;BME280;11648;49.306;6.934;2023-04-15T06:08:29;97486.94;;;12.43;49.91
22964;BME280;11648;49.306;6.934;2023-04-15T06:10:57;97489.75;;;12.36;49.57
22964;BME280;11648;49.306;6.934;2023-04-15T06:13:25;97489.09;;;12.81;49.00
22964;BME280;11648;49.306;6.934;2023-04-15T06:15:53;97480.69;;;13.19;48.06
22964;BME280;11648;49.306;6.934;2023-04-15T06:18:22;97486.78;;;13.45;47.27
22964;BME280;11648;49.306;6.934;2023-04-15T06:20:50;97491.81;;;13.51;47.30
22964;BME280;11648;49.306;6.934;2023-04-15T06:23:18;97500.16;;;13.40;47.68
22964;BME280;11648;49.306;6.934;2023-04-15T06:25:46;97500.03;;;13.66;48.58
22964;BME280;11648;49.306;6.934;2023-04-15T06:28:14;97485.84;;;13.91;47.00
22964;BME280;11648;49.306;6.934;2023-04-15T06:30:42;97493.06;;;14.09;46.21
22964;BME280;11648;49.306;6.934;2023-04-15T06:33:10;97493.03;;;14.30;46.12
22964;BME280;11648;49.306;6.934;2023-04-15T06:35:38;97488.56;;;14.95;44.32
22964;BME280;11648;49.306;6.934;2023-04-15T06:38:06;97479.88;;;15.50;44.19
22964;BME280;11648;49.306;6.934;2023-04-15T06:40:34;97483.94;;;16.13;42.97
22964;BME280;11648;49.306;6.934;2023-04-15T06:43:02;97479.03;;;16.76;41.68
22964;BME280;11648;49.306;6.934;2023-04-15T06:45:31;97475.13;;;18.28;39.59
22964;BME280;11648;49.306;6.934;2023-04-15T06:47:59;97464.03;;;19.82;37.76
22964;BME280;11648;49.306;6.934;2023-04-15T06:50:28;97470.78;;;20.95;36.14
22964;BME280;11648;49.306;6.934;2023-04-15T06:52:56;97455.94;;;21.66;34.08
22964;BME280;11648;49.306;6.934;2023-04-15T06:55:24;97465.56;;;21.06;34.20
22964;BME280;11648;49.306;6.934;2023-04-15T06:57:52;97465.59;;;21.56;33.53
22964;BME280;11648;49.306;6.934;2023-04-15T07:00:20;97466.47;;;21.70;33.41
22964;BME280;11648;49.306;6.934;2023-04-15T07:02:48;97463.09;;;22.04;32.56
22964;BME280;11648;49.306;6.934;2023-04-15T07:05:16;97458.16;;;21.85;31.69
22964;BME280;11648;49.306;6.934;2023-04-15T07:07:44;97448.22;;;22.71;31.33
22964;BME280;11648;49.306;6.934;2023-04-15T07:10:12;97455.31;;;22.72;30.30
22964;BME280;11648;49.306;6.934;2023-04-15T07:12:42;97452.44;;;22.86;30.02
22964;BME280;11648;49.306;6.934;2023-04-15T07:15:10;97469.34;;;22.52;29.99
22964;BME280;11648;49.306;6.934;2023-04-15T07:17:40;97468.91;;;22.34;30.66
22964;BME280;11648;49.306;6.934;2023-04-15T07:20:10;97466.84;;;23.31;29.26
22964;BME280;11648;49.306;6.934;2023-04-15T07:22:38;97473.25;;;24.19;28.72
22964;BME280;11648;49.306;6.934;2023-04-15T07:25:07;97459.69;;;24.64;26.46
22964;BME280;11648;49.306;6.934;2023-04-15T07:27:35;97461.53;;;24.95;27.24
22964;BME280;11648;49.306;6.934;2023-04-15T07:30:04;97471.16;;;24.66;27.34
22964;BME280;11648;49.306;6.934;2023-04-15T07:32:32;97470.41;;;24.75;26.88
22964;BME280;11648;49.306;6.934;2023-04-15T07:35:00;97472.09;;;24.87;28.21
22964;BME280;11648;49.306;6.934;2023-04-15T07:37:28;97473.13;;;24.75;27.53
22964;BME280;11648;49.306;6.934;2023-04-15T07:39:57;97464.41;;;25.86;26.73
22964;BME280;11648;49.306;6.934;2023-04-15T07:42:25;97468.53;;;26.30;25.52
22964;BME280;11648;49.306;6.934;2023-04-15T07:44:53;97472.50;;;26.85;25.35
22964;BME280;11648;49.306;6.934;2023-04-15T07:47:21;97478.34;;;28.21;24.83
22964;BME280;11648;49.306;6.934;2023-04-15T07:49:49;97475.53;;;28.13;24.02
22964;BME280;11648;49.306;6.934;2023-04-15T07:52:18;97464.97;;;28.65;23.77
22964;BME280;11648;49.306;6.934;2023-04-15T07:54:46;97464.19;;;29.86;21.93
22964;BME280;11648;49.306;6.934;2023-04-15T07:57:14;97465.09;;;30.71;21.39
22964;BME280;11648;49.306;6.934;2023-04-15T07:59:43;97467.84;;;30.95;20.93
22964;BME280;11648;49.306;6.934;2023-04-15T08:02:11;97458.97;;;31.90;19.47
22964;BME280;11648;49.306;6.934;2023-04-15T08:04:39;97453.63;;;33.21;18.59
22964;BME280;11648;49.306;6.934;2023-04-15T08:07:08;97459.91;;;33.59;18.26
22964;BME280;11648;49.306;6.934;2023-04-15T08:09:36;97451.63;;;34.05;18.06
22964;BME280;11648;49.306;6.934;2023-04-15T08:12:04;97459.50;;;34.88;17.29
22964;BME280;11648;49.306;6.934;2023-04-15T08:14:32;97458.34;;;35.18;16.45
22964;BME280;11648;49.306;6.934;2023-04-15T08:17:00;97452.94;;;35.67;16.28
22964;BME280;11648;49.306;6.934;2023-04-15T08:19:29;97464.94;;;35.94;15.58
22964;BME280;11648;49.306;6.934;2023-04-15T08:21:57;97465.91;;;35.58;17.12
22964;BME280;11648;49.306;6.934;2023-04-15T08:24:25;97457.56;;;35.94;16.22
22964;BME280;11648;49.306;6.934;2023-04-15T08:26:54;97467.63;;;36.15;16.13
22964;BME280;11648;49.306;6.934;2023-04-15T08:29:22;97464.44;;;36.46;15.24
22964;BME280;11648;49.306;6.934;2023-04-15T08:31:50;97469.69;;;36.88;15.37
22964;BME280;11648;49.306;6.934;2023-04-15T08:34:18;97472.94;;;37.05;15.33
22964;BME280;11648;49.306;6.934;2023-04-15T08:36:46;97474.50;;;36.73;15.96
22964;BME280;11648;49.306;6.934;2023-04-15T08:39:14;97482.47;;;36.68;15.75
22964;BME280;11648;49.306;6.934;2023-04-15T08:41:50;97462.66;;;37.73;14.99
22964;BME280;11648;49.306;6.934;2023-04-15T08:44:19;97475.06;;;37.23;15.65
22964;BME280;11648;49.306;6.934;2023-04-15T08:46:50;97464.78;;;38.10;14.58
22964;BME280;11648;49.306;6.934;2023-04-15T08:49:20;97468.06;;;38.51;13.98
22964;BME280;11648;49.306;6.934;2023-04-15T08:51:49;97474.28;;;37.88;13.81
22964;BME280;11648;49.306;6.934;2023-04-15T08:54:17;97469.47;;;39.18;12.93
22964;BME280;11648;49.306;6.934;2023-04-15T08:56:46;97472.41;;;38.15;13.26
22964;BME280;11648;49.306;6.934;2023-04-15T08:59:14;97479.00;;;37.00;13.53
22964;BME280;11648;49.306;6.934;2023-04-15T09:01:43;97492.19;;;34.96;14.36
22964;BME280;11648;49.306;6.934;2023-04-15T09:04:13;97492.16;;;32.10;16.68
22964;BME280;11648;49.306;6.934;2023-04-15T09:06:41;97492.63;;;33.45;16.22
22964;BME280;11648;49.306;6.934;2023-04-15T09:09:09;97495.56;;;34.77;14.33
22964;BME280;11648;49.306;6.934;2023-04-15T09:11:37;97491.59;;;36.06;13.54
22964;BME280;11648;49.306;6.934;2023-04-15T09:14:05;97495.94;;;35.09;14.80
22964;BME280;11648;49.306;6.934;2023-04-15T09:16:59;97499.19;;;34.10;15.02
22964;BME280;11648;49.306;6.934;2023-04-15T09:19:28;97508.41;;;34.09;15.32
22964;BME280;11648;49.306;6.934;2023-04-15T09:21:58;97508.19;;;34.19;14.72
22964;BME280;11648;49.306;6.934;2023-04-15T09:24:35;97511.66;;;34.13;14.44
22964;BME280;11648;49.306;6.934;2023-04-15T09:27:04;97514.13;;;34.37;13.41
22964;BME280;11648;49.306;6.934;2023-04-15T09:29:32;97517.19;;;35.92;13.66
22964;BME280;11648;49.306;6.934;2023-04-15T09:32:14;97510.75;;;37.23;12.94
22964;BME280;11648;49.306;6.934;2023-04-15T09:34:42;97514.66;;;36.53;11.98
22964;BME280;11648;49.306;6.934;2023-04-15T09:37:11;97510.69;;;35.51;12.22
22964;BME280;11648;49.306;6.934;2023-04-15T09:39:58;97513.53;;;36.41;12.06
22964;BME280;11648;49.306;6.934;2023-04-15T09:42:26;97511.69;;;38.41;11.84
22964;BME280;11648;49.306;6.934;2023-04-15T09:44:54;97514.66;;;38.20;10.64
22964;BME280;11648;49.306;6.934;2023-04-15T09:47:30;97515.69;;;38.52;10.80
22964;BME280;11648;49.306;6.934;2023-04-15T09:49:59;97521.25;;;38.26;10.36
22964;BME280;11648;49.306;6.934;2023-04-15T09:52:29;97523.13;;;37.86;10.63
22964;BME280;11648;49.306;6.934;2023-04-15T09:54:58;97526.72;;;37.60;10.92
22964;BME280;11648;49.306;6.934;2023-04-15T09:57:37;97525.31;;;36.69;11.10
22964;BME280;11648;49.306;6.934;2023-04-15T10:00:07;97528.78;;;36.84;10.97
22964;BME280;11648;49.306;6.934;2023-04-15T10:02:36;97524.91;;;37.20;10.42
22964;BME280;11648;49.306;6.934;2023-04-15T10:05:09;97529.38;;;36.45;11.36
22964;BME280;11648;49.306;6.934;2023-04-15T10:07:39;97530.66;;;37.38;11.20
22964;BME280;11648;49.306;6.934;2023-04-15T10:10:08;97531.19;;;36.59;8.96
22964;BME280;11648;49.306;6.934;2023-04-15T10:12:39;97529.75;;;36.70;9.65
22964;BME280;11648;49.306;6.934;2023-04-15T10:15:14;97543.25;;;37.06;9.49
22964;BME280;11648;49.306;6.934;2023-04-15T10:17:44;97546.38;;;37.77;10.32
22964;BME280;11648;49.306;6.934;2023-04-15T10:20:13;97534.19;;;38.96;10.45
22964;BME280;11648;49.306;6.934;2023-04-15T10:22:44;97536.47;;;40.06;10.04
22964;BME280;11648;49.306;6.934;2023-04-15T10:25:14;97533.41;;;40.64;9.82
22964;BME280;11648;49.306;6.934;2023-04-15T10:27:42;97533.31;;;40.03;10.14
22964;BME280;11648;49.306;6.934;2023-04-15T10:30:11;97526.44;;;40.61;10.24
22964;BME280;11648;49.306;6.934;2023-04-15T10:32:39;97540.09;;;42.00;9.10
22964;BME280;11648;49.306;6.934;2023-04-15T10:35:08;97543.75;;;39.76;10.06
22964;BME280;11648;49.306;6.934;2023-04-15T10:37:37;97540.22;;;38.34;10.62
22964;BME280;11648;49.306;6.934;2023-04-15T10:40:31;97550.38;;;37.87;10.52
22964;BME280;11648;49.306;6.934;2023-04-15T10:43:01;97547.13;;;37.38;11.42
22964;BME280;11648;49.306;6.934;2023-04-15T10:45:34;97552.53;;;36.36;11.08
22964;BME280;11648;49.306;6.934;2023-04-15T10:48:06;97555.81;;;36.25;11.26
22964;BME280;11648;49.306;6.934;2023-04-15T10:50:36;97558.44;;;34.47;12.69
22964;BME280;11648;49.306;6.934;2023-04-15T10:53:04;97552.66;;;34.86;11.53
22964;BME280;11648;49.306;6.934;2023-04-15T10:55:33;97565.84;;;34.97;12.36
22964;BME280;11648;49.306;6.934;2023-04-15T10:58:01;97573.03;;;33.34;13.22
22964;BME280;11648;49.306;6.934;2023-04-15T11:00:31;97575.03;;;32.87;13.54
22964;BME280;11648;49.306;6.934;2023-04-15T11:03:05;97579.47;;;31.84;13.40
22964;BME280;11648;49.306;6.934;2023-04-15T11:08:09;97586.41;;;30.88;14.86
22964;BME280;11648;49.306;6.934;2023-04-15T11:15:43;97604.63;;;29.84;16.42
22964;BME280;11648;49.306;6.934;2023-04-15T11:18:25;97604.91;;;28.46;16.86
22964;BME280;11648;49.306;6.934;2023-04-15T11:20:57;97615.44;;;27.93;17.90
22964;BME280;11648;49.306;6.934;2023-04-15T11:25:56;97622.22;;;26.31;19.68
22964;BME280;11648;49.306;6.934;2023-04-15T11:28:29;97631.13;;;25.81;20.13
22964;BME280;11648;49.306;6.934;2023-04-15T11:31:04;97634.66;;;25.61;20.89
22964;BME280;11648;49.306;6.934;2023-04-15T11:33:33;97636.41;;;26.54;19.87
22964;BME280;11648;49.306;6.934;2023-04-15T11:36:01;97636.56;;;27.02;18.90
22964;BME280;11648;49.306;6.934;2023-04-15T11:38:31;97631.94;;;27.81;18.81
22964;BME280;11648;49.306;6.934;2023-04-15T11:41:00;97634.72;;;28.83;18.25
22964;BME280;11648;49.306;6.934;2023-04-15T11:43:31;97636.53;;;30.08;16.64
22964;BME280;11648;49.306;6.934;2023-04-15T11:46:00;97630.66;;;30.72;15.95
22964;BME280;11648;49.306;6.934;2023-04-15T11:48:34;97628.28;;;31.69;15.62
22964;BME280;11648;49.306;6.934;2023-04-15T11:51:04;97628.06;;;32.52;14.26
22964;BME280;11648;49.306;6.934;2023-04-15T11:56:05;97626.06;;;34.68;13.74
22964;BME280;11648;49.306;6.934;2023-04-15T11:58:34;97624.34;;;34.96;13.59
22964;BME280;11648;49.306;6.934;2023-04-15T12:01:03;97640.81;;;33.53;13.80
22964;BME280;11648;49.306;6.934;2023-04-15T12:03:40;97642.56;;;31.05;15.23
22964;BME280;11648;49.306;6.934;2023-04-15T12:06:19;97652.72;;;29.29;17.25
22964;BME280;11648;49.306;6.934;2023-04-15T12:11:16;97662.81;;;29.55;16.24
22964;BME280;11648;49.306;6.934;2023-04-15T12:13:47;97662.41;;;29.50;15.79
22964;BME280;11648;49.306;6.934;2023-04-15T12:16:18;97668.66;;;30.13;15.68
22964;BME280;11648;49.306;6.934;2023-04-15T12:18:46;97669.03;;;29.82;15.56
22964;BME280;11648;49.306;6.934;2023-04-15T12:21:13;97672.13;;;29.52;15.03
22964;BME280;11648;49.306;6.934;2023-04-15T12:23:51;97672.28;;;29.68;15.55
22964;BME280;11648;49.306;6.934;2023-04-15T12:26:49;97671.97;;;29.71;14.74
22964;BME280;11648;49.306;6.934;2023-04-15T12:29:16;97681.38;;;28.77;14.87
22964;BME280;11648;49.306;6.934;2023-04-15T12:31:50;97677.94;;;28.29;15.05
22964;BME280;11648;49.306;6.934;2023-04-15T12:34:29;97685.47;;;28.06;16.69
22964;BME280;11648;49.306;6.934;2023-04-15T12:36:57;97689.94;;;28.07;17.46
22964;BME280;11648;49.306;6.934;2023-04-15T12:39:26;97694.59;;;28.34;17.49
22964;BME280;11648;49.306;6.934;2023-04-15T12:41:57;97699.16;;;28.05;17.48
22964;BME280;11648;49.306;6.934;2023-04-15T12:44:24;97702.59;;;27.97;17.64
22964;BME280;11648;49.306;6.934;2023-04-15T12:46:51;97706.84;;;27.71;18.56
22964;BME280;11648;49.306;6.934;2023-04-15T12:49:22;97713.41;;;27.59;19.28
22964;BME280;11648;49.306;6.934;2023-04-15T12:51:51;97706.97;;;27.60;20.12
22964;BME280;11648;49.306;6.934;2023-04-15T12:54:18;97709.19;;;27.26;20.39
22964;BME280;11648;49.306;6.934;2023-04-15T12:56:46;97722.63;;;27.07;20.51
22964;BME280;11648;49.306;6.934;2023-04-15T12:59:14;97729.66;;;27.38;21.00
22964;BME280;11648;49.306;6.934;2023-04-15T13:01:42;97736.03;;;27.27;21.85
22964;BME280;11648;49.306;6.934;2023-04-15T13:04:09;97740.75;;;26.85;22.23
22964;BME280;11648;49.306;6.934;2023-04-15T13:06:36;97751.47;;;26.55;21.83
22964;BME280;11648;49.306;6.934;2023-04-15T13:09:04;97752.44;;;26.13;22.30
22964;BME280;11648;49.306;6.934;2023-04-15T13:11:32;97756.34;;;25.88;22.89
22964;BME280;11648;49.306;6.934;2023-04-15T13:14:00;97764.06;;;25.61;22.09
22964;BME280;11648;49.306;6.934;2023-04-15T13:16:27;97760.00;;;25.55;23.00
22964;BME280;11648;49.306;6.934;2023-04-15T13:18:54;97770.84;;;25.22;21.80
22964;BME280;11648;49.306;6.934;2023-04-15T13:21:21;97768.50;;;25.17;21.43
22964;BME280;11648;49.306;6.934;2023-04-15T13:23:48;97766.53;;;25.19;20.97
22964;BME280;11648;49.306;6.934;2023-04-15T13:26:18;97775.72;;;25.28;20.23